createdAt,value
2023-04-09T00:00:04.645Z,15.95
2023-04-09T00:02:31.575Z,15.85
2023-04-09T00:04:58.345Z,15.82
2023-04-09T00:07:25.126Z,15.00
2023-04-09T00:09:51.959Z,15.35
2023-04-09T00:12:19.004Z,15.93
2023-04-09T00:14:45.787Z,14.73
2023-04-09T00:17:12.608Z,16.05
2023-04-09T00:19:39.319Z,15.60
2023-04-09T00:22:06.111Z,12.95
2023-04-09T00:24:32.885Z,14.88
2023-04-09T00:26:59.651Z,13.07
2023-04-09T00:29:26.578Z,12.93
2023-04-09T00:31:53.447Z,13.43
2023-04-09T00:34:20.392Z,12.00
2023-04-09T00:36:47.226Z,14.73
2023-04-09T00:39:14.113Z,14.88
2023-04-09T00:41:40.934Z,14.63
2023-04-09T00:44:07.771Z,14.35
2023-04-09T00:46:34.577Z,16.10
2023-04-09T00:49:02.512Z,16.33
2023-04-09T00:51:29.265Z,16.73
2023-04-09T00:53:56.109Z,18.23
2023-04-09T00:56:23.167Z,19.85
2023-04-09T00:58:50.062Z,17.58
2023-04-09T01:01:17.036Z,19.83
2023-04-09T01:03:43.955Z,23.60
2023-04-09T01:06:16.365Z,17.65
2023-04-09T01:09:06.717Z,18.23
2023-04-09T01:11:39.164Z,15.50
2023-04-09T01:14:11.944Z,15.82
2023-04-09T01:16:38.727Z,15.50
2023-04-09T01:19:11.384Z,14.73
2023-04-09T01:21:38.208Z,13.77
2023-04-09T01:24:43.022Z,12.23
2023-04-09T01:27:09.897Z,14.45
2023-04-09T01:29:41.949Z,14.65
2023-04-09T01:32:08.766Z,14.68
2023-04-09T01:34:35.624Z,16.05
2023-04-09T01:37:02.981Z,16.00
2023-04-09T01:39:29.694Z,15.35
2023-04-09T01:41:58.146Z,17.38
2023-04-09T01:44:25.097Z,14.63
2023-04-09T01:46:51.896Z,16.17
2023-04-09T01:49:18.821Z,16.63
2023-04-09T01:51:45.574Z,15.60
2023-04-09T01:54:12.305Z,12.52
2023-04-09T01:56:46.518Z,12.80
2023-04-09T01:59:13.606Z,13.15
2023-04-09T02:02:00.427Z,13.68
2023-04-09T02:04:35.625Z,13.35
2023-04-09T02:07:06.420Z,13.15
2023-04-09T02:09:34.560Z,13.05
2023-04-09T02:12:03.967Z,13.98
2023-04-09T02:14:34.751Z,12.93
2023-04-09T02:17:01.664Z,15.27
2023-04-09T02:19:41.393Z,15.18
2023-04-09T02:24:34.744Z,14.77
2023-04-09T02:27:02.406Z,15.85
2023-04-09T02:29:29.189Z,15.90
2023-04-09T02:31:56.081Z,15.05
2023-04-09T02:34:23.353Z,16.08
2023-04-09T02:36:50.282Z,17.30
2023-04-09T02:39:17.083Z,14.85
2023-04-09T02:41:44.806Z,14.70
2023-04-09T02:44:11.741Z,15.15
2023-04-09T02:46:39.379Z,14.77
2023-04-09T02:49:06.296Z,14.63
2023-04-09T02:51:35.500Z,15.70
2023-04-09T02:54:02.800Z,16.27
2023-04-09T02:56:29.602Z,15.00
2023-04-09T02:58:56.339Z,15.82
2023-04-09T03:01:23.194Z,14.85
2023-04-09T03:03:50.652Z,15.68
2023-04-09T03:06:18.719Z,15.32
2023-04-09T03:08:45.632Z,14.82
2023-04-09T03:11:12.484Z,14.88
2023-04-09T03:13:39.302Z,14.43
2023-04-09T03:16:07.856Z,15.20
2023-04-09T03:18:34.711Z,14.60
2023-04-09T03:21:05.900Z,16.33
2023-04-09T03:23:35.214Z,16.92
2023-04-09T03:26:03.157Z,17.10
2023-04-09T03:28:30.018Z,17.35
2023-04-09T03:30:56.834Z,16.33
2023-04-09T03:33:24.268Z,17.10
2023-04-09T03:35:51.776Z,17.52
2023-04-09T03:38:18.685Z,16.55
2023-04-09T03:40:45.488Z,16.55
2023-04-09T03:43:12.278Z,17.23
2023-04-09T03:45:39.303Z,16.67
2023-04-09T03:48:06.293Z,18.45
2023-04-09T03:50:38.604Z,17.13
2023-04-09T03:53:05.618Z,18.77
2023-04-09T03:55:32.339Z,18.08
2023-04-09T03:57:59.327Z,17.33
2023-04-09T04:00:26.143Z,17.17
2023-04-09T04:02:53.201Z,17.77
2023-04-09T04:05:22.636Z,16.92
2023-04-09T04:07:49.751Z,16.17
2023-04-09T04:10:16.569Z,16.80
2023-04-09T04:12:43.376Z,16.58
2023-04-09T04:15:10.463Z,17.10
2023-04-09T04:17:37.275Z,15.65
2023-04-09T04:20:05.669Z,16.92
2023-04-09T04:22:34.656Z,18.40
2023-04-09T04:25:01.395Z,16.92
2023-04-09T04:27:28.113Z,17.67
2023-04-09T04:29:55.031Z,18.58
2023-04-09T04:32:22.150Z,19.17
2023-04-09T04:34:50.308Z,18.30
2023-04-09T04:37:17.125Z,18.48
2023-04-09T04:39:43.878Z,17.98
2023-04-09T04:42:10.626Z,18.70
2023-04-09T04:44:37.473Z,18.10
2023-04-09T04:47:04.322Z,16.83
2023-04-09T04:49:31.813Z,16.73
2023-04-09T04:51:58.634Z,17.27
2023-04-09T04:54:25.520Z,18.17
2023-04-09T04:56:52.393Z,16.70
2023-04-09T04:59:19.458Z,17.15
2023-04-09T05:01:46.431Z,18.15
2023-04-09T05:04:13.253Z,18.85
2023-04-09T05:06:40.087Z,17.73
2023-04-09T05:09:06.887Z,17.67
2023-04-09T05:11:33.623Z,18.33
2023-04-09T05:14:00.662Z,16.75
2023-04-09T05:16:27.493Z,18.10
2023-04-09T05:18:54.618Z,19.50
2023-04-09T05:21:21.803Z,17.70
2023-04-09T05:23:48.542Z,18.33
2023-04-09T05:26:15.734Z,17.95
2023-04-09T05:28:42.533Z,18.48
2023-04-09T05:31:13.245Z,16.38
2023-04-09T05:33:40.385Z,18.58
2023-04-09T05:36:07.542Z,16.63
2023-04-09T05:38:34.766Z,16.08
2023-04-09T05:41:01.503Z,17.35
2023-04-09T05:43:28.321Z,18.33
2023-04-09T05:45:55.095Z,18.25
2023-04-09T05:48:22.035Z,17.73
2023-04-09T05:50:55.985Z,16.52
2023-04-09T05:53:23.074Z,15.93
2023-04-09T05:55:49.874Z,14.57
2023-04-09T05:58:17.296Z,15.43
2023-04-09T06:00:44.083Z,11.68
2023-04-09T06:03:11.028Z,16.33
2023-04-09T06:05:38.034Z,13.07
2023-04-09T06:08:04.950Z,14.23
2023-04-09T06:10:34.838Z,14.27
2023-04-09T06:13:01.678Z,15.30
2023-04-09T06:15:28.504Z,15.95
2023-04-09T06:17:58.184Z,14.85
2023-04-09T06:20:26.326Z,16.77
2023-04-09T06:22:53.274Z,17.15
2023-04-09T06:25:20.167Z,11.27
2023-04-09T06:27:47.133Z,20.90
2023-04-09T06:30:13.885Z,15.38
2023-04-09T06:32:53.163Z,15.98
2023-04-09T06:35:22.604Z,15.05
2023-04-09T06:37:49.323Z,12.03
2023-04-09T06:40:16.238Z,13.73
2023-04-09T06:42:43.031Z,11.67
2023-04-09T06:45:10.168Z,11.57
2023-04-09T06:47:37.260Z,13.07
2023-04-09T06:50:04.567Z,12.60
2023-04-09T06:52:31.695Z,12.13
2023-04-09T06:54:58.417Z,13.68
2023-04-09T06:57:26.429Z,9.73
2023-04-09T06:59:53.222Z,12.30
2023-04-09T07:02:20.223Z,11.25
2023-04-09T07:04:47.842Z,13.77
2023-04-09T07:07:14.696Z,11.93
2023-04-09T07:09:42.170Z,14.68
2023-04-09T07:12:09.211Z,15.73
2023-04-09T07:14:36.022Z,12.75
2023-04-09T07:17:03.353Z,12.55
2023-04-09T07:19:30.173Z,9.95
2023-04-09T07:21:56.950Z,12.55
2023-04-09T07:24:23.750Z,15.68
2023-04-09T07:26:52.102Z,12.13
2023-04-09T07:29:20.913Z,10.35
2023-04-09T07:31:47.947Z,11.50
2023-04-09T07:34:14.903Z,13.02
2023-04-09T07:36:42.886Z,10.18
2023-04-09T07:39:09.745Z,10.30
2023-04-09T07:41:37.003Z,8.40
2023-04-09T07:44:04.188Z,10.27
2023-04-09T07:46:30.950Z,11.73
2023-04-09T07:48:57.914Z,13.20
2023-04-09T07:51:25.226Z,12.98
2023-04-09T07:53:52.030Z,13.40
2023-04-09T07:56:18.904Z,16.30
2023-04-09T07:58:45.733Z,15.00
2023-04-09T08:01:12.475Z,12.77
2023-04-09T08:03:39.611Z,12.23
2023-04-09T08:06:06.486Z,14.55
2023-04-09T08:08:33.264Z,13.30
2023-04-09T08:11:00.185Z,14.20
2023-04-09T08:13:27.104Z,13.80
2023-04-09T08:15:53.851Z,14.25
2023-04-09T08:18:20.800Z,18.05
2023-04-09T08:20:47.591Z,25.77
2023-04-09T08:23:14.359Z,20.77
2023-04-09T08:25:42.413Z,19.75
2023-04-09T08:28:09.124Z,17.95
2023-04-09T08:30:36.542Z,15.00
2023-04-09T08:33:03.299Z,18.45
2023-04-09T08:35:33.150Z,15.20
2023-04-09T08:38:00.172Z,15.77
2023-04-09T08:40:26.898Z,15.20
2023-04-09T08:42:59.629Z,14.45
2023-04-09T08:45:26.490Z,15.05
2023-04-09T08:47:53.312Z,16.25
2023-04-09T08:50:20.279Z,16.92
2023-04-09T08:52:48.758Z,17.45
2023-04-09T08:55:15.657Z,17.63
2023-04-09T08:57:42.530Z,17.48
2023-04-09T09:00:09.851Z,16.35
2023-04-09T09:02:36.981Z,15.45
2023-04-09T09:05:03.845Z,13.95
2023-04-09T09:07:31.027Z,17.48
2023-04-09T09:10:03.686Z,15.95
2023-04-09T09:12:43.374Z,17.75
2023-04-09T09:15:29.244Z,13.82
2023-04-09T09:17:57.619Z,13.20
2023-04-09T09:20:25.227Z,15.15
2023-04-09T09:22:55.396Z,15.75
2023-04-09T09:25:24.977Z,16.50
2023-04-09T09:27:52.261Z,14.18
2023-04-09T09:30:26.207Z,16.63
2023-04-09T09:33:08.599Z,14.75
2023-04-09T09:35:50.943Z,15.60
2023-04-09T09:38:18.447Z,17.67
2023-04-09T09:40:45.375Z,16.35
2023-04-09T09:43:14.465Z,16.35
2023-04-09T09:45:42.114Z,16.10
2023-04-09T09:48:10.935Z,15.88
2023-04-09T09:50:38.415Z,15.48
2023-04-09T09:53:08.569Z,16.08
2023-04-09T09:55:41.663Z,15.48
2023-04-09T09:58:27.320Z,14.45
2023-04-09T10:00:54.164Z,19.77
2023-04-09T10:03:26.072Z,15.32
2023-04-09T10:05:53.673Z,14.15
2023-04-09T10:08:21.776Z,15.25
2023-04-09T10:10:48.665Z,13.18
2023-04-09T10:13:35.406Z,13.20
2023-04-09T10:16:02.584Z,12.68
2023-04-09T10:18:33.531Z,14.25
2023-04-09T10:21:12.837Z,15.27
2023-04-09T10:23:39.476Z,15.90
2023-04-09T10:26:06.361Z,15.55
2023-04-09T10:28:33.623Z,17.58
2023-04-09T10:31:00.682Z,15.82
2023-04-09T10:33:28.172Z,14.88
2023-04-09T10:35:55.889Z,14.43
2023-04-09T10:38:42.478Z,12.55
2023-04-09T10:41:28.982Z,12.25
2023-04-09T10:43:55.722Z,13.00
2023-04-09T10:46:42.432Z,13.02
2023-04-09T10:49:15.901Z,13.38
2023-04-09T10:51:48.141Z,13.98
2023-04-09T10:54:36.289Z,14.52
2023-04-09T10:57:09.406Z,14.35
2023-04-09T10:59:36.928Z,14.85
2023-04-09T11:02:07.271Z,14.25
2023-04-09T11:04:50.453Z,13.63
2023-04-09T11:07:18.109Z,18.45
2023-04-09T11:09:44.841Z,14.63
2023-04-09T11:12:11.926Z,13.55
2023-04-09T11:14:38.762Z,12.73
2023-04-09T11:17:05.773Z,12.50
2023-04-09T11:19:36.232Z,12.38
2023-04-09T11:22:08.917Z,13.43
2023-04-09T11:24:46.753Z,12.73
2023-04-09T11:27:15.125Z,11.93
2023-04-09T11:29:42.454Z,16.33
2023-04-09T11:32:09.328Z,12.00
2023-04-09T11:34:36.199Z,14.00
2023-04-09T11:37:07.171Z,11.52
2023-04-09T11:39:36.883Z,10.77
2023-04-09T11:42:03.936Z,11.40
2023-04-09T11:44:31.171Z,12.02
2023-04-09T11:46:59.198Z,11.68
2023-04-09T11:49:26.190Z,10.40
2023-04-09T11:51:53.399Z,11.98
2023-04-09T11:54:20.278Z,11.48
2023-04-09T11:56:47.177Z,11.38
2023-04-09T11:59:14.871Z,11.43
2023-04-09T12:01:42.049Z,10.40
2023-04-09T12:04:09.637Z,11.93
2023-04-09T12:06:40.688Z,13.88
2023-04-09T12:09:08.889Z,11.63
2023-04-09T12:11:37.287Z,10.70
2023-04-09T12:14:04.826Z,9.60
2023-04-09T12:16:32.768Z,10.00
2023-04-09T12:19:09.069Z,10.23
2023-04-09T12:21:54.853Z,10.90
2023-04-09T12:24:25.670Z,9.30
2023-04-09T12:26:52.536Z,10.15
2023-04-09T12:29:20.820Z,10.60
2023-04-09T12:31:47.759Z,9.48
2023-04-09T12:34:14.589Z,9.73
2023-04-09T12:36:44.278Z,10.10
2023-04-09T12:39:11.223Z,11.45
2023-04-09T12:41:38.049Z,10.90
2023-04-09T12:44:05.351Z,9.80
2023-04-09T12:46:32.844Z,10.48
2023-04-09T12:48:59.924Z,10.27
2023-04-09T12:51:26.773Z,10.35
2023-04-09T12:53:53.732Z,10.13
2023-04-09T12:56:20.669Z,10.20
2023-04-09T12:58:47.514Z,9.98
2023-04-09T13:01:14.460Z,10.25
2023-04-09T13:03:41.749Z,9.77
2023-04-09T13:06:08.977Z,10.60
2023-04-09T13:08:35.924Z,9.77
2023-04-09T13:11:02.818Z,9.50
2023-04-09T13:13:30.012Z,9.65
2023-04-09T13:15:57.419Z,12.27
2023-04-09T13:18:24.139Z,10.18
2023-04-09T13:20:51.001Z,9.50
2023-04-09T13:23:17.747Z,8.98
2023-04-09T13:25:44.564Z,10.63
2023-04-09T13:28:11.751Z,9.80
2023-04-09T13:30:38.714Z,9.70
2023-04-09T13:33:05.678Z,10.50
2023-04-09T13:35:32.621Z,10.30
2023-04-09T13:37:59.364Z,10.10
2023-04-09T13:40:26.605Z,10.95
2023-04-09T13:42:55.791Z,9.40
2023-04-09T13:45:24.035Z,9.88
2023-04-09T13:47:51.217Z,9.93
2023-04-09T13:50:18.392Z,9.80
2023-04-09T13:52:45.370Z,10.35
2023-04-09T13:55:12.194Z,10.02
2023-04-09T13:57:39.051Z,10.10
2023-04-09T14:00:07.439Z,10.32
2023-04-09T14:02:34.319Z,8.90
2023-04-09T14:05:02.658Z,9.38
2023-04-09T14:07:29.491Z,13.45
2023-04-09T14:09:56.205Z,13.30
2023-04-09T14:12:23.009Z,10.02
2023-04-09T14:14:50.141Z,11.30
2023-04-09T14:17:16.868Z,11.05
2023-04-09T14:19:43.709Z,10.30
2023-04-09T14:22:11.601Z,10.60
2023-04-09T14:24:40.193Z,10.48
2023-04-09T14:27:07.944Z,10.57
2023-04-09T14:29:35.111Z,10.88
2023-04-09T14:32:01.964Z,10.18
2023-04-09T14:34:30.742Z,9.75
2023-04-09T14:36:57.582Z,9.82
2023-04-09T14:39:24.387Z,9.88
2023-04-09T14:41:51.264Z,11.68
2023-04-09T14:44:18.017Z,13.50
2023-04-09T14:46:45.699Z,13.70
2023-04-09T14:49:12.728Z,9.95
2023-04-09T14:51:39.666Z,9.77
2023-04-09T14:54:06.854Z,10.55
2023-04-09T14:56:33.779Z,10.45
2023-04-09T14:59:00.685Z,9.57
2023-04-09T15:01:28.184Z,9.98
2023-04-09T15:03:55.453Z,9.30
2023-04-09T15:06:22.396Z,10.02
2023-04-09T15:08:49.104Z,10.10
2023-04-09T15:11:16.784Z,10.90
2023-04-09T15:13:43.557Z,9.38
2023-04-09T15:16:10.424Z,9.45
2023-04-09T15:18:37.654Z,11.95
2023-04-09T15:21:05.615Z,9.40
2023-04-09T15:23:32.391Z,9.27
2023-04-09T15:25:59.423Z,9.20
2023-04-09T15:28:26.559Z,9.68
2023-04-09T15:30:54.866Z,8.27
2023-04-09T15:33:21.653Z,9.65
2023-04-09T15:35:48.497Z,8.88
2023-04-09T15:38:17.208Z,8.40
2023-04-09T15:40:44.178Z,9.27
2023-04-09T15:43:11.068Z,8.88
2023-04-09T15:45:37.977Z,8.30
2023-04-09T15:48:05.624Z,8.45
2023-04-09T15:50:32.797Z,8.88
2023-04-09T15:52:59.533Z,9.77
2023-04-09T15:55:27.112Z,9.10
2023-04-09T15:57:55.274Z,9.07
2023-04-09T16:00:22.326Z,8.32
2023-04-09T16:02:49.130Z,8.75
2023-04-09T16:05:16.107Z,9.88
2023-04-09T16:07:42.926Z,9.57
2023-04-09T16:10:10.105Z,11.32
2023-04-09T16:12:36.864Z,9.60
2023-04-09T16:15:03.684Z,9.85
2023-04-09T16:17:31.143Z,9.20
2023-04-09T16:19:57.941Z,9.43
2023-04-09T16:22:24.691Z,9.02
2023-04-09T16:24:52.716Z,10.15
2023-04-09T16:27:19.685Z,10.27
2023-04-09T16:29:46.529Z,9.40
2023-04-09T16:32:16.147Z,10.90
2023-04-09T16:37:09.717Z,9.57
2023-04-09T16:39:36.706Z,9.32
2023-04-09T16:42:03.633Z,9.20
2023-04-09T16:44:30.369Z,9.60
2023-04-09T16:46:57.355Z,9.20
2023-04-09T16:49:24.206Z,9.25
2023-04-09T16:51:51.975Z,9.50
2023-04-09T16:54:19.070Z,9.57
2023-04-09T16:56:46.008Z,9.55
2023-04-09T16:59:13.604Z,9.85
2023-04-09T17:01:40.631Z,8.50
2023-04-09T17:04:07.505Z,9.07
2023-04-09T17:06:34.313Z,10.93
2023-04-09T17:09:01.587Z,9.70
2023-04-09T17:11:28.352Z,8.95
2023-04-09T17:13:55.459Z,8.55
2023-04-09T17:16:22.524Z,8.60
2023-04-09T17:18:49.329Z,8.13
2023-04-09T17:21:16.134Z,8.80
2023-04-09T17:23:44.378Z,9.02
2023-04-09T17:26:11.329Z,9.30
2023-04-09T17:28:38.046Z,9.60
2023-04-09T17:31:12.317Z,9.35
2023-04-09T17:33:39.436Z,8.75
2023-04-09T17:36:06.553Z,8.15
2023-04-09T17:38:33.399Z,7.75
2023-04-09T17:41:00.625Z,8.77
2023-04-09T17:43:27.570Z,7.97
2023-04-09T17:45:54.513Z,7.95
2023-04-09T17:48:21.661Z,11.95
2023-04-09T17:50:48.691Z,8.48
2023-04-09T17:53:15.519Z,8.38
2023-04-09T17:55:48.617Z,9.10
2023-04-09T17:58:15.682Z,8.38
2023-04-09T18:00:43.437Z,12.00
2023-04-09T18:03:12.263Z,9.82
2023-04-09T18:05:39.542Z,11.80
2023-04-09T18:08:07.444Z,8.10
2023-04-09T18:10:34.392Z,9.05
2023-04-09T18:13:01.350Z,7.80
2023-04-09T18:15:28.591Z,8.10
2023-04-09T18:17:55.687Z,8.32
2023-04-09T18:20:22.515Z,9.70
2023-04-09T18:22:49.583Z,10.07
2023-04-09T18:25:16.403Z,7.07
2023-04-09T18:27:43.329Z,7.30
2023-04-09T18:30:10.611Z,7.05
2023-04-09T18:32:37.651Z,7.43
2023-04-09T18:35:04.766Z,6.85
2023-04-09T18:37:31.614Z,6.45
2023-04-09T18:40:00.201Z,7.22
2023-04-09T18:42:28.935Z,6.63
2023-04-09T18:44:56.461Z,7.95
2023-04-09T18:47:23.331Z,6.90
2023-04-09T18:49:50.371Z,10.40
2023-04-09T18:52:17.228Z,6.68
2023-04-09T18:54:46.476Z,6.43
2023-04-09T18:57:13.438Z,6.20
2023-04-09T18:59:41.471Z,9.40
2023-04-09T19:02:08.266Z,7.63
2023-04-09T19:04:37.110Z,8.20
2023-04-09T19:07:04.069Z,6.88
2023-04-09T19:09:32.036Z,7.47
2023-04-09T19:11:59.092Z,6.72
2023-04-09T19:14:26.213Z,9.10
2023-04-09T19:16:53.026Z,6.95
2023-04-09T19:19:19.945Z,7.13
2023-04-09T19:21:46.885Z,7.75
2023-04-09T19:24:13.678Z,7.05
2023-04-09T19:26:40.554Z,10.57
2023-04-09T19:29:07.305Z,8.13
2023-04-09T19:31:34.064Z,10.25
2023-04-09T19:34:01.011Z,7.47
2023-04-09T19:36:28.517Z,7.72
2023-04-09T19:38:55.563Z,7.47
2023-04-09T19:41:29.498Z,8.32
2023-04-09T19:43:56.247Z,7.20
2023-04-09T19:46:23.070Z,8.70
2023-04-09T19:48:49.902Z,9.40
2023-04-09T19:51:20.292Z,8.48
2023-04-09T19:53:48.188Z,11.73
2023-04-09T19:56:15.825Z,8.05
2023-04-09T19:58:43.489Z,10.63
2023-04-09T20:01:10.336Z,7.90
2023-04-09T20:03:37.269Z,9.95
2023-04-09T20:06:09.352Z,8.48
2023-04-09T20:08:39.380Z,8.68
2023-04-09T20:11:06.957Z,8.63
2023-04-09T20:13:34.346Z,7.93
2023-04-09T20:16:01.245Z,8.68
2023-04-09T20:18:28.879Z,9.63
2023-04-09T20:20:55.772Z,12.02
2023-04-09T20:23:24.698Z,10.95
2023-04-09T20:25:55.080Z,8.05
2023-04-09T20:28:22.378Z,8.45
2023-04-09T20:30:49.420Z,9.13
2023-04-09T20:33:17.346Z,7.68
2023-04-09T20:35:44.193Z,8.63
2023-04-09T20:38:11.236Z,8.38
2023-04-09T20:40:38.269Z,7.70
2023-04-09T20:43:05.255Z,8.00
2023-04-09T20:45:32.070Z,7.75
2023-04-09T20:47:58.983Z,7.38
2023-04-09T20:50:26.213Z,7.40
2023-04-09T20:52:53.060Z,8.50
2023-04-09T20:55:20.031Z,7.82
2023-04-09T20:57:46.871Z,8.02
2023-04-09T21:00:14.152Z,7.68
2023-04-09T21:02:41.168Z,9.82
2023-04-09T21:05:21.346Z,9.13
2023-04-09T21:07:50.973Z,7.18
2023-04-09T21:10:17.891Z,7.00
2023-04-09T21:12:44.699Z,8.38
2023-04-09T21:15:11.738Z,8.88
2023-04-09T21:17:38.643Z,7.03
2023-04-09T21:20:06.276Z,8.48
2023-04-09T21:22:34.564Z,8.15
2023-04-09T21:25:03.446Z,7.97
2023-04-09T21:27:30.460Z,7.28
2023-04-09T21:29:57.650Z,7.70
2023-04-09T21:32:25.376Z,7.63
2023-04-09T21:34:52.349Z,6.63
2023-04-09T21:37:19.308Z,7.35
2023-04-09T21:39:48.313Z,7.88
2023-04-09T21:42:15.781Z,6.82
2023-04-09T21:44:42.737Z,7.15
2023-04-09T21:47:09.527Z,6.78
2023-04-09T21:49:40.231Z,6.88
2023-04-09T21:52:14.358Z,7.10
2023-04-09T21:54:42.270Z,9.38
2023-04-09T21:57:09.287Z,7.13
2023-04-09T21:59:41.325Z,7.00
2023-04-09T22:02:08.754Z,7.22
2023-04-09T22:04:35.806Z,7.82
2023-04-09T22:07:03.115Z,10.80
2023-04-09T22:09:30.745Z,8.18
2023-04-09T22:11:58.595Z,9.80
2023-04-09T22:14:26.703Z,6.70
2023-04-09T22:16:55.127Z,11.15
2023-04-09T22:19:21.846Z,7.70
2023-04-09T22:21:50.814Z,6.90
2023-04-09T22:24:19.359Z,7.25
2023-04-09T22:26:48.971Z,6.68
2023-04-09T22:29:16.005Z,8.55
2023-04-09T22:31:42.790Z,8.07
2023-04-09T22:34:20.022Z,7.10
2023-04-09T22:36:48.047Z,5.85
2023-04-09T22:39:14.891Z,7.03
2023-04-09T22:41:41.843Z,7.05
2023-04-09T22:44:09.758Z,7.35
2023-04-09T22:46:36.834Z,11.80
2023-04-09T22:49:05.322Z,7.45
2023-04-09T22:51:34.844Z,6.63
2023-04-09T22:54:02.174Z,9.57
2023-04-09T22:56:30.285Z,10.75
2023-04-09T22:58:57.121Z,7.78
2023-04-09T23:01:23.888Z,10.82
2023-04-09T23:03:50.982Z,17.73
2023-04-09T23:06:17.986Z,40.03
2023-04-09T23:08:44.965Z,17.50
2023-04-09T23:11:11.772Z,15.65
2023-04-09T23:13:38.949Z,18.65
2023-04-09T23:16:10.546Z,9.90
2023-04-09T23:18:37.485Z,10.60
2023-04-09T23:21:06.815Z,10.27
2023-04-09T23:23:34.285Z,9.48
2023-04-09T23:26:01.106Z,8.85
2023-04-09T23:28:28.174Z,8.48
2023-04-09T23:30:55.291Z,7.68
2023-04-09T23:33:22.039Z,10.45
2023-04-09T23:35:49.258Z,10.75
2023-04-09T23:38:16.327Z,9.27
2023-04-09T23:40:43.300Z,11.05
2023-04-09T23:43:10.154Z,9.38
2023-04-09T23:45:37.035Z,8.30
2023-04-09T23:48:05.066Z,7.50
2023-04-09T23:50:31.923Z,7.88
2023-04-09T23:53:01.129Z,8.60
2023-04-09T23:55:28.029Z,8.50
2023-04-09T23:57:54.865Z,9.02
